createdAt,value
2018-01-15T00:01:00.858Z,86.33
2018-01-15T00:02:07.031Z,86.49
2018-01-15T00:03:13.004Z,86.43
2018-01-15T00:04:19.217Z,86.11
2018-01-15T00:05:25.398Z,85.68
2018-01-15T00:06:31.593Z,85.65
2018-01-15T00:07:37.769Z,85.62
2018-01-15T00:08:43.967Z,85.69
2018-01-15T00:09:50.134Z,85.67
2018-01-15T00:10:56.395Z,85.61
2018-01-15T00:12:02.580Z,85.81
2018-01-15T00:13:08.727Z,86.20
2018-01-15T00:14:14.871Z,86.45
2018-01-15T00:15:21.061Z,86.46
2018-01-15T00:16:27.323Z,86.75
2018-01-15T00:17:33.476Z,87.12
2018-01-15T00:18:39.671Z,87.05
2018-01-15T00:19:45.850Z,86.67
2018-01-15T00:20:51.706Z,86.00
2018-01-15T00:21:57.548Z,85.61
2018-01-15T00:23:03.744Z,85.71
2018-01-15T00:24:09.913Z,86.40
2018-01-15T00:25:21.336Z,86.38
2018-01-15T00:26:27.513Z,86.55
2018-01-15T00:27:33.740Z,86.62
2018-01-15T00:28:39.963Z,86.83
2018-01-15T00:29:46.104Z,86.91
2018-01-15T00:30:52.355Z,86.54
2018-01-15T00:31:58.508Z,85.95
2018-01-15T00:33:04.646Z,85.72
2018-01-15T00:34:10.853Z,85.82
2018-01-15T00:35:17.031Z,86.01
2018-01-15T00:36:23.194Z,86.05
2018-01-15T00:37:29.511Z,86.31
2018-01-15T00:38:35.662Z,86.21
2018-01-15T00:39:41.823Z,86.32
2018-01-15T00:40:48.004Z,86.28
2018-01-15T00:41:54.152Z,86.34
2018-01-15T00:43:00.323Z,86.17
2018-01-15T00:44:06.506Z,86.18
2018-01-15T00:45:12.652Z,86.14
2018-01-15T00:46:18.853Z,86.41
2018-01-15T00:47:25.017Z,86.41
2018-01-15T00:48:31.226Z,86.37
2018-01-15T00:49:37.356Z,86.65
2018-01-15T00:50:43.544Z,86.78
2018-01-15T00:51:49.721Z,86.51
2018-01-15T00:52:55.879Z,86.25
2018-01-15T00:54:02.012Z,86.01
2018-01-15T00:55:16.579Z,85.78
2018-01-15T00:56:22.792Z,85.68
2018-01-15T00:57:29.015Z,85.75
2018-01-15T00:58:35.245Z,85.62
2018-01-15T00:59:41.479Z,85.71
2018-01-15T01:00:47.694Z,85.28
2018-01-15T01:01:54.259Z,85.12
2018-01-15T01:03:00.428Z,84.99
2018-01-15T01:04:06.684Z,84.71
2018-01-15T01:05:12.920Z,84.27
2018-01-15T01:06:19.075Z,84.43
2018-01-15T01:07:25.230Z,84.40
2018-01-15T01:08:31.405Z,84.32
2018-01-15T01:09:37.651Z,83.83
2018-01-15T01:10:44.082Z,83.74
2018-01-15T01:11:50.314Z,83.76
2018-01-15T01:12:56.483Z,83.56
2018-01-15T01:14:05.694Z,83.12
2018-01-15T01:15:12.817Z,83.04
2018-01-15T01:16:18.946Z,83.07
2018-01-15T01:17:25.106Z,83.09
2018-01-15T01:18:31.323Z,83.24
2018-01-15T01:19:37.531Z,83.25
2018-01-15T01:20:43.792Z,83.00
2018-01-15T01:21:50.149Z,82.62
2018-01-15T01:22:56.342Z,82.88
2018-01-15T01:24:02.526Z,82.46
2018-01-15T01:25:08.742Z,82.54
2018-01-15T01:26:22.636Z,82.37
2018-01-15T01:27:28.491Z,82.54
2018-01-15T01:28:34.659Z,82.51
2018-01-15T01:29:40.635Z,82.72
2018-01-15T01:30:46.813Z,82.76
2018-01-15T01:31:53.022Z,82.51
2018-01-15T01:32:59.239Z,82.37
2018-01-15T01:34:05.092Z,82.47
2018-01-15T01:35:11.350Z,82.27
2018-01-15T01:36:17.602Z,82.35
2018-01-15T01:37:23.811Z,82.37
2018-01-15T01:38:29.965Z,82.18
2018-01-15T01:39:37.016Z,82.29
2018-01-15T01:40:43.222Z,82.23
2018-01-15T01:41:49.405Z,82.26
2018-01-15T01:42:55.603Z,82.14
2018-01-15T01:44:01.837Z,82.12
2018-01-15T01:45:08.011Z,82.12
2018-01-15T01:46:14.221Z,81.92
2018-01-15T01:47:20.385Z,81.59
2018-01-15T01:48:37.776Z,81.70
2018-01-15T01:49:43.713Z,81.90
2018-01-15T01:50:49.916Z,81.86
2018-01-15T01:51:56.091Z,81.83
2018-01-15T01:53:02.294Z,81.75
2018-01-15T01:54:08.137Z,81.62
2018-01-15T01:55:14.019Z,81.62
2018-01-15T01:56:19.881Z,81.66
2018-01-15T01:57:26.033Z,81.72
2018-01-15T01:58:32.280Z,81.72
2018-01-15T01:59:38.432Z,81.73
2018-01-15T02:00:44.583Z,81.57
2018-01-15T02:01:49.761Z,81.55
2018-01-15T02:02:55.971Z,81.52
2018-01-15T02:04:02.103Z,81.41
2018-01-15T02:05:08.311Z,81.44
2018-01-15T02:06:14.545Z,81.36
2018-01-15T02:07:20.752Z,81.30
2018-01-15T02:08:26.282Z,81.36
2018-01-15T02:09:32.446Z,81.41
2018-01-15T02:10:38.598Z,81.42
2018-01-15T02:11:44.782Z,81.57
2018-01-15T02:12:51.549Z,81.54
2018-01-15T02:13:57.707Z,81.52
2018-01-15T02:15:03.502Z,81.61
2018-01-15T02:16:09.736Z,81.75
2018-01-15T02:17:15.954Z,81.88
2018-01-15T02:18:22.171Z,81.88
2018-01-15T02:19:27.970Z,81.90
2018-01-15T02:20:34.154Z,81.88
2018-01-15T02:21:40.308Z,81.92
2018-01-15T02:22:46.464Z,82.15
2018-01-15T02:23:52.623Z,82.26
2018-01-15T02:24:58.155Z,82.41
2018-01-15T02:26:04.031Z,82.46
2018-01-15T02:27:10.281Z,82.30
2018-01-15T02:28:16.462Z,82.30
2018-01-15T02:29:22.617Z,82.25
2018-01-15T02:30:28.807Z,82.25
2018-01-15T02:31:34.998Z,82.57
2018-01-15T02:32:46.359Z,82.67
2018-01-15T02:33:52.584Z,82.85
2018-01-15T02:34:59.762Z,82.92
2018-01-15T02:36:08.879Z,82.85
2018-01-15T02:37:15.034Z,82.77
2018-01-15T02:38:21.226Z,82.81
2018-01-15T02:39:27.490Z,82.88
2018-01-15T02:40:33.890Z,83.01
2018-01-15T02:41:40.117Z,82.89
2018-01-15T02:42:45.925Z,82.92
2018-01-15T02:43:52.075Z,82.91
2018-01-15T02:44:58.250Z,83.14
2018-01-15T02:46:04.399Z,83.27
2018-01-15T02:47:10.599Z,83.21
2018-01-15T02:48:16.747Z,83.26
2018-01-15T02:49:22.908Z,83.49
2018-01-15T02:50:28.800Z,83.58
2018-01-15T02:51:36.613Z,83.75
2018-01-15T02:52:43.859Z,83.79
2018-01-15T02:53:52.008Z,84.02
2018-01-15T02:54:59.374Z,84.03
2018-01-15T02:56:06.879Z,84.13
2018-01-15T02:57:14.177Z,84.11
2018-01-15T02:58:21.713Z,84.16
2018-01-15T02:59:29.185Z,84.16
2018-01-15T03:00:36.547Z,84.17
2018-01-15T03:01:44.050Z,84.17
2018-01-15T03:02:51.497Z,84.20
2018-01-15T03:04:00.081Z,84.30
2018-01-15T03:05:07.523Z,84.37
2018-01-15T03:06:16.330Z,84.29
2018-01-15T03:07:23.418Z,84.59
2018-01-15T03:08:30.726Z,84.58
2018-01-15T03:09:38.487Z,84.68
2018-01-15T03:10:46.292Z,84.62
2018-01-15T03:11:53.800Z,84.56
2018-01-15T03:13:00.980Z,84.52
2018-01-15T03:14:09.099Z,84.59
2018-01-15T03:15:16.554Z,84.68
2018-01-15T03:16:23.815Z,84.70
2018-01-15T03:17:31.420Z,84.54
2018-01-15T03:18:38.629Z,84.46
2018-01-15T03:19:46.045Z,84.59
2018-01-15T03:20:53.066Z,84.60
2018-01-15T03:22:00.119Z,84.76
2018-01-15T03:23:08.145Z,84.92
2018-01-15T03:24:15.688Z,85.08
2018-01-15T03:25:22.681Z,84.89
2018-01-15T03:26:29.612Z,84.74
2018-01-15T03:27:36.978Z,84.67
2018-01-15T03:28:45.657Z,84.58
2018-01-15T03:29:53.091Z,84.53
2018-01-15T03:31:00.200Z,84.68
2018-01-15T03:32:06.888Z,84.79
2018-01-15T03:33:14.077Z,84.85
2018-01-15T03:34:20.816Z,84.84
2018-01-15T03:35:28.011Z,84.77
2018-01-15T03:36:35.909Z,84.66
2018-01-15T03:37:42.357Z,84.65
2018-01-15T03:38:49.835Z,84.66
2018-01-15T03:39:56.783Z,84.99
2018-01-15T03:41:04.506Z,85.29
2018-01-15T03:42:11.434Z,85.57
2018-01-15T03:43:17.783Z,85.49
2018-01-15T03:44:24.473Z,85.49
2018-01-15T03:45:31.085Z,85.48
2018-01-15T03:46:44.921Z,85.39
2018-01-15T03:47:53.064Z,85.32
2018-01-15T03:48:59.768Z,85.28
2018-01-15T03:50:06.790Z,85.51
2018-01-15T03:51:13.692Z,85.61
2018-01-15T03:52:19.949Z,85.59
2018-01-15T03:53:27.380Z,85.54
2018-01-15T03:54:33.924Z,85.48
2018-01-15T03:55:40.120Z,85.43
2018-01-15T03:56:47.978Z,85.57
2018-01-15T03:57:54.613Z,85.54
2018-01-15T03:59:01.186Z,85.58
2018-01-15T04:00:07.942Z,85.55
2018-01-15T04:01:14.900Z,85.54
2018-01-15T04:02:21.631Z,85.62
2018-01-15T04:03:27.939Z,85.69
2018-01-15T04:04:35.038Z,85.74
2018-01-15T04:05:42.593Z,85.51
2018-01-15T04:06:50.023Z,85.43
2018-01-15T04:07:57.001Z,85.25
2018-01-15T04:09:03.765Z,85.53
2018-01-15T04:10:10.765Z,85.55
2018-01-15T04:11:18.444Z,85.58
2018-01-15T04:12:26.248Z,85.63
2018-01-15T04:13:33.748Z,85.76
2018-01-15T04:14:41.434Z,85.76
2018-01-15T04:15:48.481Z,85.70
2018-01-15T04:16:55.826Z,85.88
2018-01-15T04:18:03.790Z,85.94
2018-01-15T04:19:12.199Z,86.09
2018-01-15T04:20:19.286Z,86.18
2018-01-15T04:21:27.913Z,86.13
2018-01-15T04:22:35.639Z,86.15
2018-01-15T04:23:43.121Z,86.08
2018-01-15T04:24:49.801Z,85.94
2018-01-15T04:25:57.421Z,86.03
2018-01-15T04:27:05.748Z,85.99
2018-01-15T04:28:12.904Z,86.12
2018-01-15T04:29:21.386Z,86.26
2018-01-15T04:30:33.670Z,86.23
2018-01-15T04:31:40.876Z,86.05
2018-01-15T04:32:47.844Z,86.15
2018-01-15T04:33:54.878Z,86.10
2018-01-15T04:35:02.641Z,86.12
2018-01-15T04:36:11.507Z,86.34
2018-01-15T04:37:17.755Z,86.25
2018-01-15T04:38:23.989Z,86.19
2018-01-15T04:39:30.150Z,86.10
2018-01-15T04:40:36.303Z,86.37
2018-01-15T04:41:42.473Z,86.36
2018-01-15T04:42:48.428Z,86.39
2018-01-15T04:43:54.586Z,86.30
2018-01-15T04:45:00.799Z,86.51
2018-01-15T04:46:06.968Z,86.55
2018-01-15T04:47:13.213Z,86.58
2018-01-15T04:48:19.394Z,86.43
2018-01-15T04:49:25.584Z,86.45
2018-01-15T04:50:31.642Z,86.25
2018-01-15T04:51:37.830Z,86.31
2018-01-15T04:52:44.065Z,86.20
2018-01-15T04:53:50.226Z,86.17
2018-01-15T04:54:56.936Z,86.46
2018-01-15T04:56:06.238Z,86.65
2018-01-15T04:57:14.529Z,86.63
2018-01-15T04:58:22.237Z,86.82
2018-01-15T04:59:29.637Z,86.65
2018-01-15T05:00:36.983Z,86.80
2018-01-15T05:01:45.817Z,86.86
2018-01-15T05:02:54.437Z,86.86
2018-01-15T05:04:01.944Z,86.99
2018-01-15T05:05:08.736Z,87.02
2018-01-15T05:06:16.887Z,87.14
2018-01-15T05:07:24.407Z,87.14
2018-01-15T05:08:33.125Z,87.13
2018-01-15T05:09:41.067Z,86.89
2018-01-15T05:10:51.653Z,87.11
2018-01-15T05:12:00.465Z,87.15
2018-01-15T05:13:07.751Z,87.19
2018-01-15T05:14:14.503Z,87.38
2018-01-15T05:15:20.823Z,87.57
2018-01-15T05:16:27.021Z,87.49
2018-01-15T05:17:33.276Z,87.42
2018-01-15T05:18:40.066Z,87.68
2018-01-15T05:19:46.377Z,87.42
2018-01-15T05:20:52.664Z,87.53
2018-01-15T05:21:58.954Z,87.61
2018-01-15T05:23:08.158Z,87.62
2018-01-15T05:24:14.323Z,87.77
2018-01-15T05:25:20.483Z,87.57
2018-01-15T05:26:26.732Z,87.37
2018-01-15T05:27:32.977Z,87.40
2018-01-15T05:28:39.169Z,87.10
2018-01-15T05:29:45.326Z,87.14
2018-01-15T05:30:51.493Z,87.15
2018-01-15T05:31:57.740Z,86.93
2018-01-15T05:33:03.914Z,86.98
2018-01-15T05:34:10.160Z,86.95
2018-01-15T05:35:16.396Z,87.11
2018-01-15T05:36:22.672Z,87.16
2018-01-15T05:37:29.418Z,87.13
2018-01-15T05:38:37.603Z,87.13
2018-01-15T05:39:45.619Z,87.12
2018-01-15T05:40:52.312Z,87.12
2018-01-15T05:41:58.481Z,87.32
2018-01-15T05:43:04.695Z,87.51
2018-01-15T05:44:10.843Z,87.38
2018-01-15T05:45:17.037Z,87.29
2018-01-15T05:46:23.199Z,87.62
2018-01-15T05:47:29.331Z,87.54
2018-01-15T05:48:35.565Z,87.39
2018-01-15T05:49:41.418Z,87.51
2018-01-15T05:50:47.601Z,87.39
2018-01-15T05:51:53.783Z,87.36
2018-01-15T05:53:00.023Z,87.52
2018-01-15T05:54:06.172Z,87.61
2018-01-15T05:55:12.495Z,87.38
2018-01-15T05:56:18.726Z,87.23
2018-01-15T05:57:24.966Z,87.29
2018-01-15T05:58:31.197Z,87.58
2018-01-15T05:59:37.455Z,87.44
2018-01-15T06:00:43.610Z,87.36
2018-01-15T06:01:49.798Z,87.45
2018-01-15T06:02:55.975Z,87.44
2018-01-15T06:04:02.198Z,87.41
2018-01-15T06:05:08.444Z,87.30
2018-01-15T06:06:14.698Z,87.43
2018-01-15T06:07:20.857Z,87.40
2018-01-15T06:08:26.996Z,87.38
2018-01-15T06:09:33.183Z,87.23
2018-01-15T06:10:39.431Z,87.37
2018-01-15T06:11:45.657Z,87.39
2018-01-15T06:12:51.908Z,87.38
2018-01-15T06:14:00.052Z,87.40
2018-01-15T06:15:06.205Z,87.45
2018-01-15T06:16:12.398Z,87.50
2018-01-15T06:17:18.582Z,87.55
2018-01-15T06:18:24.795Z,87.63
2018-01-15T06:19:31.008Z,87.56
2018-01-15T06:20:37.197Z,87.67
2018-01-15T06:21:43.419Z,87.70
2018-01-15T06:22:49.714Z,87.64
2018-01-15T06:23:55.919Z,87.79
2018-01-15T06:25:02.102Z,87.80
2018-01-15T06:26:08.298Z,88.31
2018-01-15T06:27:14.502Z,88.38
2018-01-15T06:28:20.751Z,88.15
2018-01-15T06:29:26.892Z,88.50
2018-01-15T06:30:33.079Z,88.54
2018-01-15T06:31:39.250Z,88.47
2018-01-15T06:32:45.418Z,88.42
2018-01-15T06:33:51.558Z,88.49
2018-01-15T06:34:57.768Z,88.39
2018-01-15T06:36:03.972Z,88.29
2018-01-15T06:37:10.168Z,88.11
2018-01-15T06:38:16.407Z,87.95
2018-01-15T06:39:22.587Z,87.78
2018-01-15T06:40:28.761Z,87.93
2018-01-15T06:41:34.974Z,88.10
2018-01-15T06:42:41.192Z,88.31
2018-01-15T06:43:47.390Z,88.30
2018-01-15T06:44:53.580Z,88.14
2018-01-15T06:45:59.716Z,88.22
2018-01-15T06:47:05.894Z,88.38
2018-01-15T06:48:12.091Z,88.39
2018-01-15T06:49:18.297Z,88.44
2018-01-15T06:50:24.555Z,88.28
2018-01-15T06:51:30.803Z,88.26
2018-01-15T06:52:36.936Z,88.22
2018-01-15T06:53:43.087Z,88.33
2018-01-15T06:54:49.239Z,88.46
2018-01-15T06:55:55.453Z,88.37
2018-01-15T06:57:01.576Z,88.22
2018-01-15T06:58:07.862Z,88.14
2018-01-15T06:59:14.064Z,88.14
2018-01-15T07:00:20.257Z,88.09
2018-01-15T07:01:26.411Z,88.23
2018-01-15T07:02:32.571Z,88.28
2018-01-15T07:03:38.745Z,88.37
2018-01-15T07:04:44.964Z,88.33
2018-01-15T07:05:51.132Z,88.30
2018-01-15T07:06:57.354Z,88.13
2018-01-15T07:08:03.558Z,88.18
2018-01-15T07:09:09.757Z,88.14
2018-01-15T07:10:15.903Z,88.15
2018-01-15T07:11:22.047Z,88.01
2018-01-15T07:12:28.183Z,87.66
2018-01-15T07:13:34.369Z,87.64
2018-01-15T07:14:40.554Z,87.83
2018-01-15T07:15:46.687Z,88.02
2018-01-15T07:16:52.842Z,88.18
2018-01-15T07:17:58.999Z,88.14
2018-01-15T07:19:05.241Z,88.10
2018-01-15T07:20:11.403Z,88.15
2018-01-15T07:21:17.718Z,88.18
2018-01-15T07:22:23.902Z,88.06
2018-01-15T07:23:30.040Z,87.98
2018-01-15T07:24:36.180Z,88.03
2018-01-15T07:25:42.323Z,87.87
2018-01-15T07:26:48.724Z,87.65
2018-01-15T07:27:54.911Z,87.68
2018-01-15T07:29:01.072Z,87.87
2018-01-15T07:30:07.267Z,87.98
2018-01-15T07:31:13.718Z,87.90
2018-01-15T07:32:19.930Z,87.85
2018-01-15T07:33:26.079Z,87.92
2018-01-15T07:34:32.233Z,87.99
2018-01-15T07:35:38.433Z,87.87
2018-01-15T07:36:44.639Z,87.87
2018-01-15T07:37:50.818Z,87.61
2018-01-15T07:38:57.147Z,87.66
2018-01-15T07:40:03.307Z,87.71
2018-01-15T07:41:09.456Z,87.65
2018-01-15T07:42:15.614Z,87.69
2018-01-15T07:43:21.807Z,87.50
2018-01-15T07:44:28.059Z,87.49
2018-01-15T07:45:34.245Z,87.41
2018-01-15T07:46:40.419Z,87.52
2018-01-15T07:47:46.546Z,87.64
2018-01-15T07:48:52.738Z,87.54
2018-01-15T07:50:04.935Z,87.49
2018-01-15T07:51:11.188Z,87.69
2018-01-15T07:52:17.318Z,87.66
2018-01-15T07:53:23.540Z,87.65
2018-01-15T07:54:29.685Z,87.74
2018-01-15T07:55:36.792Z,87.64
2018-01-15T07:56:42.932Z,87.64
2018-01-15T07:57:49.081Z,87.67
2018-01-15T07:58:55.404Z,87.65
2018-01-15T08:00:01.692Z,87.55
2018-01-15T08:01:07.676Z,87.61
2018-01-15T08:02:13.797Z,87.45
2018-01-15T08:03:20.017Z,87.66
2018-01-15T08:04:26.139Z,87.60
2018-01-15T08:05:32.323Z,87.39
2018-01-15T08:06:38.511Z,87.27
2018-01-15T08:07:44.674Z,87.09
2018-01-15T08:08:50.883Z,87.01
2018-01-15T08:09:57.010Z,86.99
2018-01-15T08:11:04.115Z,86.91
2018-01-15T08:12:10.372Z,86.75
2018-01-15T08:13:16.529Z,86.77
2018-01-15T08:14:22.985Z,86.56
2018-01-15T08:15:29.262Z,86.33
2018-01-15T08:16:35.398Z,86.86
2018-01-15T08:17:41.548Z,86.93
2018-01-15T08:18:47.715Z,86.96
2018-01-15T08:19:53.904Z,86.75
2018-01-15T08:21:00.145Z,86.68
2018-01-15T08:22:06.490Z,86.49
2018-01-15T08:23:12.674Z,86.51
2018-01-15T08:24:18.854Z,86.49
2018-01-15T08:25:25.062Z,86.61
2018-01-15T08:26:31.445Z,86.58
2018-01-15T08:27:37.308Z,86.48
2018-01-15T08:28:43.756Z,86.20
2018-01-15T08:29:50.796Z,85.80
2018-01-15T08:30:57.225Z,85.92
2018-01-15T08:32:03.383Z,86.38
2018-01-15T08:33:09.544Z,86.24
2018-01-15T08:34:15.780Z,85.79
2018-01-15T08:35:21.938Z,86.02
2018-01-15T08:36:28.176Z,85.63
2018-01-15T08:37:34.393Z,85.54
2018-01-15T08:38:40.647Z,85.57
2018-01-15T08:39:48.443Z,85.35
2018-01-15T08:40:54.562Z,85.26
2018-01-15T08:42:00.723Z,85.12
2018-01-15T08:43:06.866Z,85.05
2018-01-15T08:44:13.417Z,84.87
2018-01-15T08:45:19.290Z,84.82
2018-01-15T08:46:25.455Z,84.76
2018-01-15T08:47:31.618Z,84.63
2018-01-15T08:48:37.789Z,84.74
2018-01-15T08:49:43.850Z,84.75
2018-01-15T08:50:50.056Z,84.54
2018-01-15T08:51:56.219Z,83.86
2018-01-15T08:53:02.355Z,83.68
2018-01-15T08:54:08.683Z,83.55
2018-01-15T08:55:14.879Z,83.72
2018-01-15T08:56:21.082Z,83.71
2018-01-15T08:57:27.275Z,83.56
2018-01-15T08:58:33.658Z,83.43
2018-01-15T08:59:39.963Z,83.28
2018-01-15T09:00:46.166Z,82.92
2018-01-15T09:01:52.313Z,82.87
2018-01-15T09:02:58.524Z,82.81
2018-01-15T09:04:04.383Z,82.76
2018-01-15T09:05:10.544Z,82.54
2018-01-15T09:06:16.722Z,82.52
2018-01-15T09:07:22.831Z,82.32
2018-01-15T09:08:29.068Z,82.12
2018-01-15T09:09:35.481Z,82.27
2018-01-15T09:10:41.806Z,82.55
2018-01-15T09:11:47.965Z,82.55
2018-01-15T09:12:54.134Z,82.68
2018-01-15T09:14:00.312Z,82.72
2018-01-15T09:15:06.569Z,82.47
2018-01-15T09:16:12.703Z,82.55
2018-01-15T09:17:18.855Z,82.38
2018-01-15T09:18:25.073Z,82.13
2018-01-15T09:19:31.452Z,82.06
2018-01-15T09:20:37.601Z,82.06
2018-01-15T09:21:43.726Z,82.19
2018-01-15T09:22:49.885Z,82.04
2018-01-15T09:23:55.637Z,81.94
2018-01-15T09:25:01.810Z,81.68
2018-01-15T09:26:07.971Z,81.63
2018-01-15T09:27:14.153Z,81.46
2018-01-15T09:28:20.366Z,81.50
2018-01-15T09:29:26.551Z,81.31
2018-01-15T09:30:32.798Z,81.07
2018-01-15T09:31:38.958Z,80.87
2018-01-15T09:32:45.604Z,81.04
2018-01-15T09:33:51.495Z,81.19
2018-01-15T09:34:57.715Z,81.00
2018-01-15T09:36:03.895Z,80.95
2018-01-15T09:37:10.056Z,81.03
2018-01-15T09:38:16.740Z,80.90
2018-01-15T09:39:23.676Z,80.99
2018-01-15T09:40:29.890Z,81.19
2018-01-15T09:43:18.221Z,81.14
2018-01-15T09:44:24.612Z,81.14
2018-01-15T09:45:30.787Z,81.10
2018-01-15T09:46:36.893Z,81.16
2018-01-15T09:47:43.097Z,81.14
2018-01-15T09:48:49.348Z,80.74
2018-01-15T09:49:56.443Z,80.56
2018-01-15T09:51:03.670Z,80.53
2018-01-15T09:52:10.829Z,80.38
2018-01-15T09:53:19.085Z,80.47
2018-01-15T09:54:26.902Z,80.64
2018-01-15T09:55:34.442Z,80.63
2018-01-15T09:56:41.625Z,80.60
2018-01-15T09:57:48.448Z,80.52
2018-01-15T09:58:55.288Z,80.76
2018-01-15T10:00:03.550Z,80.44
2018-01-15T10:01:11.493Z,80.45
2018-01-15T10:02:19.203Z,80.22
2018-01-15T10:03:27.143Z,79.83
2018-01-15T10:04:34.915Z,80.16
2018-01-15T10:05:42.979Z,79.63
2018-01-15T10:06:50.249Z,79.16
2018-01-15T10:07:57.576Z,79.03
2018-01-15T10:09:04.127Z,79.04
2018-01-15T10:10:11.096Z,79.11
2018-01-15T10:11:18.279Z,79.15
2018-01-15T10:12:26.407Z,78.74
2018-01-15T10:13:33.968Z,78.64
2018-01-15T10:14:42.359Z,78.44
2018-01-15T10:15:49.577Z,78.01
2018-01-15T10:16:56.981Z,77.72
2018-01-15T10:18:03.959Z,77.70
2018-01-15T10:19:10.666Z,77.66
2018-01-15T10:20:17.974Z,77.85
2018-01-15T10:21:25.114Z,78.11
2018-01-15T10:22:32.622Z,77.87
2018-01-15T10:23:39.975Z,77.62
2018-01-15T10:24:47.903Z,77.53
2018-01-15T10:25:55.251Z,77.23
2018-01-15T10:27:02.255Z,77.04
2018-01-15T10:28:09.681Z,77.01
2018-01-15T10:29:16.611Z,76.88
2018-01-15T10:30:23.765Z,76.88
2018-01-15T10:31:31.116Z,76.98
2018-01-15T10:32:40.842Z,76.40
2018-01-15T10:33:48.232Z,76.50
2018-01-15T10:34:55.866Z,76.61
2018-01-15T10:36:02.640Z,76.71
2018-01-15T10:37:14.893Z,76.61
2018-01-15T10:38:21.176Z,76.42
2018-01-15T10:39:27.349Z,76.09
2018-01-15T10:40:33.554Z,75.97
2018-01-15T10:41:40.299Z,75.85
2018-01-15T10:42:46.475Z,75.95
2018-01-15T10:43:52.716Z,75.88
2018-01-15T10:44:58.953Z,75.70
2018-01-15T10:46:05.142Z,75.61
2018-01-15T10:47:11.382Z,75.79
2018-01-15T10:48:17.306Z,75.78
2018-01-15T10:49:24.305Z,75.58
2018-01-15T10:50:31.134Z,75.52
2018-01-15T10:51:37.156Z,74.78
2018-01-15T10:52:43.397Z,74.82
2018-01-15T10:53:49.627Z,74.59
2018-01-15T10:54:55.938Z,74.15
2018-01-15T10:56:02.527Z,74.03
2018-01-15T10:57:08.859Z,74.10
2018-01-15T10:58:15.464Z,74.00
2018-01-15T10:59:21.718Z,73.83
2018-01-15T11:00:33.330Z,74.16
2018-01-15T11:01:39.392Z,74.05
2018-01-15T11:02:45.596Z,74.08
2018-01-15T11:03:51.792Z,74.10
2018-01-15T11:04:58.655Z,73.98
2018-01-15T11:06:04.501Z,74.20
2018-01-15T11:07:10.668Z,74.10
2018-01-15T11:08:16.935Z,74.12
2018-01-15T11:09:23.188Z,74.16
2018-01-15T11:10:32.596Z,73.72
2018-01-15T11:11:38.828Z,73.80
2018-01-15T11:12:45.015Z,73.74
2018-01-15T11:13:51.319Z,73.39
2018-01-15T11:14:58.348Z,73.09
2018-01-15T11:16:04.620Z,73.16
2018-01-15T11:17:11.007Z,72.90
2018-01-15T11:18:16.851Z,72.77
2018-01-15T11:19:23.135Z,72.59
2018-01-15T11:20:29.372Z,72.78
2018-01-15T11:21:35.560Z,72.54
2018-01-15T11:22:42.505Z,72.27
2018-01-15T11:23:49.136Z,72.40
2018-01-15T11:24:55.463Z,72.29
2018-01-15T11:26:02.028Z,72.54
2018-01-15T11:27:08.271Z,72.20
2018-01-15T11:28:15.120Z,71.96
2018-01-15T11:29:21.392Z,71.78
2018-01-15T11:30:27.568Z,71.76
2018-01-15T11:31:34.099Z,71.85
2018-01-15T11:32:40.290Z,71.48
2018-01-15T11:33:46.595Z,71.63
2018-01-15T11:34:52.971Z,71.59
2018-01-15T11:35:59.232Z,71.76
2018-01-15T11:37:05.568Z,71.94
2018-01-15T11:38:11.487Z,71.81
2018-01-15T11:39:18.188Z,71.63
2018-01-15T11:40:25.098Z,72.27
2018-01-15T11:41:31.479Z,72.38
2018-01-15T11:42:38.019Z,72.52
2018-01-15T11:43:44.491Z,72.75
2018-01-15T11:44:51.789Z,72.80
2018-01-15T11:45:58.057Z,72.70
2018-01-15T11:47:04.800Z,72.59
2018-01-15T11:48:10.785Z,72.62
2018-01-15T11:49:17.045Z,72.71
2018-01-15T11:50:23.251Z,72.35
2018-01-15T11:51:29.502Z,72.43
2018-01-15T11:52:35.856Z,72.73
2018-01-15T11:53:42.104Z,72.80
2018-01-15T11:54:49.177Z,72.96
2018-01-15T11:55:56.190Z,72.86
2018-01-15T11:57:02.795Z,72.99
2018-01-15T11:58:09.662Z,73.06
2018-01-15T11:59:15.603Z,72.81
2018-01-15T12:00:21.782Z,72.83
2018-01-15T12:01:27.952Z,73.04
2018-01-15T12:02:36.619Z,73.09
2018-01-15T12:03:42.827Z,73.28
2018-01-15T12:04:49.361Z,73.22
2018-01-15T12:05:55.567Z,73.31
2018-01-15T12:07:01.863Z,73.36
2018-01-15T12:08:08.169Z,73.48
2018-01-15T12:09:15.147Z,73.40
2018-01-15T12:10:21.417Z,73.34
2018-01-15T12:11:27.685Z,73.30
2018-01-15T12:12:33.959Z,72.97
2018-01-15T12:13:40.208Z,73.38
2018-01-15T12:14:46.491Z,73.95
2018-01-15T12:15:52.742Z,74.20
2018-01-15T12:16:58.731Z,74.38
2018-01-15T12:18:04.991Z,74.58
2018-01-15T12:19:11.264Z,74.67
2018-01-15T12:20:17.482Z,74.63
2018-01-15T12:21:23.819Z,74.68
2018-01-15T12:22:30.127Z,74.93
2018-01-15T12:23:37.082Z,75.08
2018-01-15T12:24:43.615Z,75.05
2018-01-15T12:25:49.830Z,75.01
2018-01-15T12:26:55.758Z,74.89
2018-01-15T12:28:02.044Z,74.62
2018-01-15T12:29:08.068Z,74.50
2018-01-15T12:30:14.293Z,74.70
2018-01-15T12:31:20.308Z,74.37
2018-01-15T12:32:26.596Z,74.08
2018-01-15T12:33:32.902Z,74.26
2018-01-15T12:34:39.804Z,74.18
2018-01-15T12:35:46.091Z,73.93
2018-01-15T12:36:54.003Z,73.57
2018-01-15T12:38:00.238Z,73.10
2018-01-15T12:39:06.741Z,73.27
2018-01-15T12:40:12.991Z,73.09
2018-01-15T12:41:19.207Z,72.89
2018-01-15T12:42:25.445Z,72.27
2018-01-15T12:43:32.672Z,72.78
2018-01-15T12:44:38.981Z,72.85
2018-01-15T12:45:45.218Z,72.85
2018-01-15T12:46:51.477Z,73.16
2018-01-15T12:47:57.920Z,73.41
2018-01-15T12:49:04.083Z,73.49
2018-01-15T12:50:10.129Z,73.07
2018-01-15T12:51:16.319Z,73.18
2018-01-15T12:52:23.132Z,73.37
2018-01-15T12:53:29.453Z,73.33
2018-01-15T12:54:35.700Z,73.44
2018-01-15T12:55:47.623Z,73.46
2018-01-15T12:56:53.838Z,73.82
2018-01-15T12:58:00.024Z,73.80
2018-01-15T12:59:06.211Z,73.97
2018-01-15T13:00:12.526Z,73.81
2018-01-15T13:01:19.311Z,73.61
2018-01-15T13:02:25.500Z,73.72
2018-01-15T13:03:31.766Z,73.65
2018-01-15T13:04:38.296Z,73.82
2018-01-15T13:05:52.984Z,73.79
2018-01-15T13:06:59.834Z,73.36
2018-01-15T13:08:11.872Z,73.49
2018-01-15T13:09:18.168Z,73.47
2018-01-15T13:10:26.031Z,73.55
2018-01-15T13:11:31.643Z,73.45
2018-01-15T13:12:38.340Z,73.53
2018-01-15T13:13:44.732Z,73.43
2018-01-15T13:14:51.016Z,73.33
2018-01-15T13:15:57.540Z,73.50
2018-01-15T13:17:04.713Z,73.32
2018-01-15T13:18:10.984Z,72.98
2018-01-15T13:19:17.215Z,73.25
2018-01-15T13:20:23.505Z,73.02
2018-01-15T13:21:29.469Z,73.04
2018-01-15T13:22:35.755Z,72.29
2018-01-15T13:23:42.043Z,72.46
2018-01-15T13:24:48.291Z,72.34
2018-01-15T13:25:55.003Z,71.98
2018-01-15T13:27:01.217Z,72.17
2018-01-15T13:28:07.555Z,72.37
2018-01-15T13:29:13.792Z,72.70
2018-01-15T13:30:20.026Z,72.74
2018-01-15T13:31:26.260Z,72.68
2018-01-15T13:32:32.549Z,72.58
2018-01-15T13:33:39.420Z,71.98
2018-01-15T13:34:45.988Z,71.95
2018-01-15T13:35:52.367Z,72.24
2018-01-15T13:36:59.022Z,72.12
2018-01-15T13:38:05.383Z,72.32
2018-01-15T13:39:11.720Z,71.83
2018-01-15T13:40:17.943Z,71.48
2018-01-15T13:41:24.497Z,71.62
2018-01-15T13:42:30.741Z,71.86
2018-01-15T13:43:37.338Z,72.09
2018-01-15T13:44:44.128Z,71.81
2018-01-15T13:45:50.457Z,72.09
2018-01-15T13:46:56.492Z,72.09
2018-01-15T13:48:02.928Z,72.19
2018-01-15T13:49:09.764Z,72.55
2018-01-15T13:50:15.990Z,72.31
2018-01-15T13:51:22.424Z,72.29
2018-01-15T13:52:28.523Z,72.28
2018-01-15T13:53:34.978Z,72.39
2018-01-15T13:54:41.216Z,72.36
2018-01-15T13:55:47.933Z,72.47
2018-01-15T13:56:54.176Z,72.51
2018-01-15T13:58:00.559Z,72.52
2018-01-15T13:59:07.099Z,72.75
2018-01-15T14:00:13.578Z,73.14
2018-01-15T14:01:20.637Z,73.12
2018-01-15T14:02:26.929Z,73.25
2018-01-15T14:03:33.252Z,73.30
2018-01-15T14:04:39.551Z,73.40
2018-01-15T14:05:45.853Z,73.32
2018-01-15T14:06:52.048Z,73.34
2018-01-15T14:07:57.954Z,73.51
2018-01-15T14:09:03.689Z,73.60
2018-01-15T14:10:09.928Z,73.61
2018-01-15T14:11:16.201Z,73.86
2018-01-15T14:12:22.462Z,73.96
2018-01-15T14:13:28.751Z,74.04
2018-01-15T14:14:35.008Z,74.00
2018-01-15T14:15:41.395Z,73.96
2018-01-15T14:16:48.326Z,73.81
2018-01-15T14:17:54.611Z,73.94
2018-01-15T14:19:00.881Z,73.91
2018-01-15T14:20:07.198Z,73.91